Time;durP1;ratioP1;P1;durP2;ratioP2;P2;SDS_P1;SDS_P2;PMS_P1;PMS_P2;Temp;Humidity;BMP_temperature;BMP_pressure;BME280_temperature;BME280_humidity;BME280_pressure;Samples;Min_cycle;Max_cycle;Signal;HPM_P1;HPM_P2
2024/04/17 00:01:50;;;;;;;49.53;45.92;;;;;;;19.11;100.00;99620.06;5315755;26;20005;-87
2024/04/17 00:04:21;;;;;;;50.78;47.17;;;;;;;19.05;100.00;99607.78;5313698;26;20071;-86
2024/04/17 00:06:49;;;;;;;56.50;52.53;;;;;;;18.96;100.00;99605.72;5349253;26;20001;-87
2024/04/17 00:09:18;;;;;;;53.47;49.75;;;;;;;18.95;100.00;99587.19;5329325;26;20015;-86
2024/04/17 00:11:47;;;;;;;47.53;43.97;;;;;;;18.96;100.00;99581.50;5320881;26;20012;-86
2024/04/17 00:14:13;;;;;;;52.50;48.80;;;;;;;18.80;100.00;99566.66;5332388;26;20105;-86
2024/04/17 00:16:42;;;;;;;47.25;43.65;;;;;;;18.81;100.00;99570.94;5314663;26;20060;-86
2024/04/17 00:19:22;;;;;;;52.17;48.38;;;;;;;18.70;100.00;99547.94;5312580;26;20493;-86
2024/04/17 00:22:21;;;;;;;49.38;45.78;;;;;;;18.66;100.00;99552.25;5314534;26;19998;-86
2024/04/17 00:25:01;;;;;;;43.70;40.20;;;;;;;18.68;100.00;99561.66;5312677;26;20005;-86
2024/04/17 00:27:30;;;;;;;54.10;50.33;;;;;;;18.49;100.00;99566.97;5314523;26;20006;-87
2024/04/17 00:29:56;;;;;;;38.55;35.45;;;;;;;18.38;100.00;99572.75;5312402;26;20441;-87
2024/04/17 00:32:25;;;;;;;40.38;37.42;;;;;;;18.30;100.00;99587.59;5314914;26;20006;-86
2024/04/17 00:34:59;;;;;;;36.80;33.70;;;;;;;18.02;100.00;99579.28;5323109;26;20015;-86
2024/04/17 00:37:34;;;;;;;38.60;35.50;;;;;;;18.18;100.00;99573.75;5349534;26;20083;-86
2024/04/17 00:40:12;;;;;;;39.90;36.60;;;;;;;18.14;100.00;99570.03;5346953;26;20005;-86
2024/04/17 00:42:44;;;;;;;38.88;35.78;;;;;;;17.92;100.00;99579.38;5348765;26;20004;-86
2024/04/17 00:45:21;;;;;;;38.97;35.88;;;;;;;17.85;100.00;99570.81;5347179;26;20005;-86
2024/04/17 00:47:49;;;;;;;38.45;35.45;;;;;;;17.75;100.00;99569.00;5320559;26;20020;-86
2024/04/17 00:50:16;;;;;;;37.22;34.22;;;;;;;17.48;100.00;99579.41;5345338;26;20464;-86
2024/04/17 00:52:45;;;;;;;37.55;34.72;;;;;;;16.94;100.00;99583.72;5348408;26;20029;-86
2024/04/17 00:55:14;;;;;;;57.28;53.47;;;;;;;17.32;100.00;99581.38;5342865;26;20100;-86
2024/04/17 00:57:46;;;;;;;45.45;42.05;;;;;;;17.51;100.00;99578.84;5314463;26;20009;-86
2024/04/17 01:00:13;;;;;;;46.33;43.05;;;;;;;17.28;100.00;99575.78;5312437;26;20064;-86
2024/04/17 01:02:42;;;;;;;42.80;39.60;;;;;;;16.92;100.00;99583.22;5335640;26;20008;-79
2024/04/17 01:05:09;;;;;;;40.40;37.38;;;;;;;17.42;100.00;99594.72;5343750;26;20001;-80
2024/04/17 01:07:39;;;;;;;44.33;40.30;;;;;;;17.41;100.00;99582.41;5311628;26;20002;-79
2024/04/17 01:10:06;;;;;;;45.25;42.05;;;;;;;17.64;100.00;99580.91;5309543;26;20834;-79
2024/04/17 01:12:38;;;;;;;39.25;36.35;;;;;;;17.80;100.00;99573.56;5342221;26;20547;-79
2024/04/17 01:15:09;;;;;;;42.30;39.20;;;;;;;17.77;100.00;99572.25;5344031;26;20366;-79
2024/04/17 01:17:38;;;;;;;45.67;42.58;;;;;;;17.70;100.00;99582.47;5346383;26;20011;-79
2024/04/17 01:20:05;;;;;;;46.30;42.75;;;;;;;17.79;100.00;99570.09;5333377;26;20002;-79
2024/04/17 01:22:34;;;;;;;39.72;36.85;;;;;;;17.87;100.00;99559.81;5334411;26;20009;-79
2024/04/17 01:25:05;;;;;;;41.65;38.75;;;;;;;17.90;100.00;99557.34;5343368;26;20001;-79
2024/04/17 01:27:34;;;;;;;41.70;38.70;;;;;;;18.10;100.00;99550.22;5347471;26;20001;-87
2024/04/17 01:30:00;;;;;;;44.85;41.70;;;;;;;17.90;100.00;99538.56;5345822;26;20020;-87
2024/04/17 01:32:32;;;;;;;43.95;40.90;;;;;;;17.83;100.00;99536.19;5348029;26;20001;-86
2024/04/17 01:35:07;;;;;;;45.08;41.35;;;;;;;17.86;100.00;99513.34;5341280;26;20016;-86
2024/04/17 01:37:54;;;;;;;40.33;37.42;;;;;;;17.81;100.00;99500.75;5347885;26;20075;-86
2024/04/17 01:40:23;;;;;;;41.55;38.65;;;;;;;17.67;100.00;99481.00;5342805;26;19997;-86
2024/04/17 01:42:52;;;;;;;41.55;38.75;;;;;;;17.47;100.00;99473.94;5313360;26;20816;-79
2024/04/17 01:45:18;;;;;;;42.05;39.10;;;;;;;17.26;100.00;99470.59;5309354;26;20013;-79
2024/04/17 01:47:52;;;;;;;40.90;38.25;;;;;;;17.01;100.00;99473.47;5347125;26;20015;-79
2024/04/17 01:50:26;;;;;;;37.80;35.20;;;;;;;16.69;100.00;99467.44;5347156;26;20001;-80
2024/04/17 01:52:55;;;;;;;40.40;37.88;;;;;;;16.65;100.00;99476.31;5349401;26;20020;-79
2024/04/17 01:55:24;;;;;;;35.08;32.78;;;;;;;16.48;100.00;99480.13;5347822;26;20453;-80
2024/04/17 01:57:54;;;;;;;37.85;35.35;;;;;;;16.45;100.00;99472.66;5349976;26;20005;-79
2024/04/17 02:00:19;;;;;;;45.53;36.30;;;;;;;16.35;100.00;99471.91;5347364;26;20016;-79
2024/04/17 02:02:48;;;;;;;40.20;37.30;;;;;;;16.29;100.00;99476.47;5349259;26;20005;-79
2024/04/17 02:05:43;;;;;;;42.83;40.22;;;;;;;16.25;100.00;99478.91;5329986;26;20094;-80
2024/04/17 02:08:18;;;;;;;36.70;34.50;;;;;;;16.26;100.00;99458.28;5347159;26;20008;-79
2024/04/17 02:10:46;;;;;;;44.25;41.88;;;;;;;15.83;100.00;99457.06;5347210;26;20016;-79
2024/04/17 02:13:15;;;;;;;43.47;41.08;;;;;;;15.29;100.00;99459.22;5349317;26;20103;-80
2024/04/17 02:15:44;;;;;;;46.28;43.78;;;;;;;15.34;100.00;99469.91;5346894;26;20001;-80
2024/04/17 02:18:16;;;;;;;47.80;45.17;;;;;;;15.68;100.00;99460.56;5348116;26;20045;-80
2024/04/17 02:20:48;;;;;;;48.85;46.03;;;;;;;15.44;100.00;99461.09;5346352;26;20018;-79
2024/04/17 02:23:16;;;;;;;51.05;48.35;;;;;;;15.43;100.00;99462.16;5348895;26;20341;-80
2024/04/17 02:25:42;;;;;;;45.60;43.20;;;;;;;15.68;100.00;99455.22;5326599;26;20005;-79
2024/04/17 02:28:13;;;;;;;44.03;41.75;;;;;;;15.33;100.00;99448.78;5348774;26;20015;-79
2024/04/17 02:30:39;;;;;;;42.47;40.08;;;;;;;14.63;100.00;99456.44;5346569;26;20016;-79
2024/04/17 02:33:08;;;;;;;42.88;40.47;;;;;;;14.55;100.00;99465.75;5329852;26;20800;-80
2024/04/17 02:35:35;;;;;;;44.33;41.83;;;;;;;15.03;100.00;99457.56;5310859;26;20487;-79
2024/04/17 02:38:04;;;;;;;50.25;47.55;;;;;;;15.20;100.00;99463.47;5349273;26;20473;-79
2024/04/17 02:40:30;;;;;;;47.25;44.53;;;;;;;14.99;100.00;99451.97;5346016;26;20001;-79
2024/04/17 02:42:59;;;;;;;48.47;45.78;;;;;;;14.96;100.00;99454.38;5336145;26;20015;-79
2024/04/17 02:45:27;;;;;;;47.00;44.22;;;;;;;14.40;100.00;99458.47;5311431;26;20002;-79
2024/04/17 02:48:00;;;;;;;41.42;39.03;;;;;;;14.62;100.00;99447.63;5320363;26;20000;-79
2024/04/17 02:50:26;;;;;;;47.80;45.15;;;;;;;13.87;100.00;99438.19;5345891;26;20005;-79
2024/04/17 02:52:56;;;;;;;46.42;43.83;;;;;;;14.51;100.00;99445.97;5348327;26;20005;-79
2024/04/17 02:55:22;;;;;;;46.65;44.05;;;;;;;14.12;100.00;99440.97;5339277;26;20005;-80
2024/04/17 02:57:51;;;;;;;48.65;45.97;;;;;;;14.50;100.00;99439.00;5335303;26;20089;-79
2024/04/17 03:00:28;;;;;;;38.35;36.03;;;;;;;13.96;100.00;99445.44;5346180;26;20016;-79
2024/04/17 03:03:03;;;;;;;45.13;42.17;;;;;;;14.29;100.00;99434.66;5348436;26;20005;-79
2024/04/17 03:05:44;;;;;;;40.55;38.15;;;;;;;13.94;100.00;99422.72;5346372;26;20472;-79
2024/04/17 03:08:13;;;;;;;41.17;38.78;;;;;;;14.03;100.00;99425.72;5346451;26;20012;-79
2024/04/17 03:10:50;;;;;;;42.90;40.20;;;;;;;14.37;100.00;99416.25;5316524;26;20012;-79
2024/04/17 03:13:35;;;;;;;42.78;40.25;;;;;;;14.30;100.00;99420.22;5311832;27;20006;-79
2024/04/17 03:16:07;;;;;;;43.95;41.25;;;;;;;14.36;100.00;99419.97;5300001;26;20014;-79
2024/04/17 03:18:34;;;;;;;40.90;38.50;;;;;;;14.55;100.00;99414.97;5346262;26;20001;-79
2024/04/17 03:21:03;;;;;;;43.05;40.55;;;;;;;14.17;100.00;99416.97;5319371;26;20388;-79
2024/04/17 03:23:35;;;;;;;35.35;33.05;;;;;;;13.82;100.00;99404.25;5311604;26;20009;-79
2024/04/17 03:26:04;;;;;;;37.47;35.08;;;;;;;14.26;100.00;99405.81;5341614;26;20005;-79
2024/04/17 03:28:36;;;;;;;33.10;30.98;;;;;;;14.18;100.00;99409.75;5348633;26;19997;-86
2024/04/17 03:31:08;;;;;;;;;;;;;;;14.03;100.00;99394.47;5328074;26;20153;-87
2024/04/17 03:33:47;;;;;;;35.78;33.55;;;;;;;14.37;100.00;99400.22;5342736;26;19995;-87
2024/04/17 03:36:22;;;;;;;33.70;31.60;;;;;;;13.85;100.00;99398.41;5321559;26;20012;-78
2024/04/17 03:38:51;;;;;;;31.75;29.85;;;;;;;13.66;100.00;99394.56;5315028;26;20002;-79
2024/04/17 03:41:28;;;;;;;52.05;47.00;;;;;;;13.97;100.00;99396.31;5331136;26;20000;-78
2024/04/17 03:44:16;;;;;;;59.65;54.05;;;;;;;13.61;100.00;99414.00;5344897;26;20383;-79
2024/04/17 03:46:48;;;;;;;26.95;25.35;;;;;;;13.67;100.00;99412.16;5322804;26;20105;-79
2024/04/17 03:49:17;;;;;;;28.77;27.17;;;;;;;14.24;100.00;99421.28;5328274;26;20000;-78
2024/04/17 03:51:44;;;;;;;31.45;29.55;;;;;;;14.23;100.00;99409.78;5341608;26;20290;-79
2024/04/17 03:54:17;;;;;;;29.83;28.02;;;;;;;14.17;100.00;99397.50;5346913;26;20017;-79
2024/04/17 03:56:43;;;;;;;32.63;30.65;;;;;;;14.34;100.00;99405.28;5339226;26;20346;-79
2024/04/17 03:59:11;;;;;;;34.15;32.40;;;;;;;14.39;100.00;99406.09;5347319;26;20005;-79
2024/04/17 04:01:38;;;;;;;29.08;27.33;;;;;;;14.36;100.00;99400.47;5343740;26;20543;-79
2024/04/17 04:04:09;;;;;;;30.00;28.20;;;;;;;14.27;100.00;99394.84;5347304;26;19996;-80
2024/04/17 04:06:37;;;;;;;26.80;25.30;;;;;;;14.26;100.00;99395.13;5345647;26;20399;-79
2024/04/17 04:09:06;;;;;;;28.17;26.58;;;;;;;14.03;100.00;99396.34;5346139;26;20017;-79
2024/04/17 04:11:33;;;;;;;30.08;28.27;;;;;;;14.39;100.00;99405.31;5344421;26;20001;-79
2024/04/17 04:14:02;;;;;;;26.08;24.55;;;;;;;14.10;100.00;99403.06;5346955;26;20015;-80
2024/04/17 04:16:29;;;;;;;29.13;27.25;;;;;;;14.14;100.00;99406.81;5344739;26;20063;-79
2024/04/17 04:19:01;;;;;;;25.67;24.27;;;;;;;14.23;100.00;99412.47;5330506;26;20016;-78
2024/04/17 04:21:40;;;;;;;27.13;25.55;;;;;;;14.63;100.00;99403.78;5340823;26;20917;-79
2024/04/17 04:24:10;;;;;;;29.92;28.13;;;;;;;15.98;100.00;99412.31;5341694;26;20015;-76
2024/04/17 04:26:37;;;;;;;26.90;25.40;;;;;;;15.41;100.00;99415.34;5346443;26;20481;-83
2024/04/17 04:29:06;;;;;;;27.67;26.08;;;;;;;19.27;100.00;99410.72;5331358;26;20009;-79
2024/04/17 04:31:32;;;;;;;27.67;26.27;;;;;;;15.74;100.00;99413.97;5343181;26;20005;-78
2024/04/17 04:34:01;;;;;;;27.20;25.65;;;;;;;15.31;100.00;99424.16;5344780;26;20032;-79
2024/04/17 04:36:38;;;;;;;27.10;25.80;;;;;;;15.02;100.00;99422.03;5337888;26;19997;-78
2024/04/17 04:39:07;;;;;;;27.45;26.05;;;;;;;15.25;100.00;99423.38;5318860;26;20005;-78
2024/04/17 04:41:36;;;;;;;29.27;27.10;;;;;;;15.46;100.00;99420.66;5345179;26;20062;-79
2024/04/17 04:44:03;;;;;;;27.52;26.13;;;;;;;15.54;100.00;99417.44;5342928;26;20041;-78
2024/04/17 04:46:32;;;;;;;29.98;27.92;;;;;;;15.76;100.00;99415.31;5346032;26;20024;-82
2024/04/17 04:48:58;;;;;;;27.10;25.67;;;;;;;15.90;100.00;99430.81;5344340;26;20473;-78
2024/04/17 04:51:27;;;;;;;26.73;25.33;;;;;;;15.85;100.00;99423.56;5310300;26;20083;-78
2024/04/17 04:53:56;;;;;;;27.02;25.52;;;;;;;16.11;100.00;99429.66;5331763;26;20092;-82
2024/04/17 04:56:41;;;;;;;25.83;24.00;;;;;;;16.14;100.00;99429.09;5322291;26;20046;-81
2024/04/17 04:59:07;;;;;;;26.17;24.88;;;;;;;16.38;100.00;99434.63;5337157;26;20001;-81
2024/04/17 05:01:36;;;;;;;26.23;24.83;;;;;;;16.20;100.00;99435.25;5346540;26;20015;-81
2024/04/17 05:04:03;;;;;;;28.90;27.10;;;;;;;16.08;100.00;99432.09;5345029;26;20045;-81
2024/04/17 05:06:34;;;;;;;28.08;26.58;;;;;;;16.10;100.00;99428.06;5346276;26;20001;-78
2024/04/17 05:09:00;;;;;;;27.00;25.60;;;;;;;15.84;100.00;99445.28;5340765;26;20005;-82
2024/04/17 05:11:29;;;;;;;27.77;25.90;;;;;;;15.70;100.00;99435.13;5347218;26;20013;-82
2024/04/17 05:14:05;;;;;;;24.95;23.65;;;;;;;16.05;100.00;99444.16;5345159;26;20664;-82
2024/04/17 05:16:39;;;;;;;26.30;24.80;;;;;;;16.29;100.00;99449.69;5346173;26;20012;-79
2024/04/17 05:19:05;;;;;;;28.75;27.15;;;;;;;16.34;100.00;99447.00;5344247;26;20452;-78
2024/04/17 05:21:34;;;;;;;25.00;23.60;;;;;;;16.53;100.00;99444.50;5348264;26;20075;-82
2024/04/17 05:24:00;;;;;;;24.95;23.70;;;;;;;16.52;100.00;99429.50;5348172;26;20481;-78
2024/04/17 05:26:28;;;;;;;25.80;24.42;;;;;;;16.48;100.00;99421.19;5341829;26;20060;-78
2024/04/17 05:28:55;;;;;;;24.83;23.52;;;;;;;16.39;100.00;99425.50;5315455;26;20006;-81
2024/04/17 05:31:30;;;;;;;27.77;26.20;;;;;;;16.64;100.00;99426.44;5350258;26;20001;-82
2024/04/17 05:33:56;;;;;;;28.30;26.70;;;;;;;16.85;100.00;99413.75;5347385;26;20001;-82
2024/04/17 05:36:25;;;;;;;28.85;27.25;;;;;;;16.93;100.00;99415.84;5340147;26;20009;-81
2024/04/17 05:38:51;;;;;;;30.70;28.90;;;;;;;16.80;100.00;99413.81;5347707;26;20502;-82
2024/04/17 05:41:20;;;;;;;27.20;25.70;;;;;;;16.90;100.00;99411.84;5350010;26;20013;-78
2024/04/17 05:43:46;;;;;;;28.85;27.13;;;;;;;16.83;100.00;99407.88;5346158;26;20005;-79
2024/04/17 05:46:15;;;;;;;27.58;26.10;;;;;;;17.13;100.00;99407.66;5322548;26;19998;-78
2024/04/17 05:48:44;;;;;;;27.52;26.02;;;;;;;17.13;100.00;99406.88;5312929;26;20878;-78
2024/04/17 05:51:13;;;;;;;32.05;30.15;;;;;;;17.40;100.00;99401.78;5338540;26;20005;-78
2024/04/17 05:53:39;;;;;;;28.90;27.30;;;;;;;17.68;100.00;99380.56;5346002;26;20808;-78
2024/04/17 05:56:08;;;;;;;30.33;28.63;;;;;;;18.16;100.00;99375.22;5348219;26;20041;-78
2024/04/17 05:58:34;;;;;;;27.85;26.20;;;;;;;18.03;100.00;99374.03;5346288;26;20080;-77
2024/04/17 06:01:03;;;;;;;28.48;26.80;;;;;;;17.82;100.00;99378.84;5333164;26;20009;-78
2024/04/17 06:03:29;;;;;;;31.23;29.25;;;;;;;18.26;100.00;99383.13;5311130;26;20075;-78
2024/04/17 06:06:01;;;;;;;29.38;27.77;;;;;;;18.24;100.00;99363.78;5313438;26;20002;-78
2024/04/17 06:08:27;;;;;;;31.20;29.50;;;;;;;18.54;100.00;99351.03;5311186;26;20006;-78
2024/04/17 06:10:56;;;;;;;32.17;30.15;;;;;;;18.93;100.00;99336.47;5313558;26;20037;-78
2024/04/17 06:13:22;;;;;;;32.30;30.30;;;;;;;19.17;100.00;99339.81;5310896;26;20016;-78
2024/04/17 06:15:51;;;;;;;31.40;29.50;;;;;;;19.01;100.00;99343.09;5313086;26;20021;-78
2024/04/17 06:18:17;;;;;;;31.80;30.00;;;;;;;19.04;100.00;99345.97;5310572;26;20001;-78
2024/04/17 06:20:46;;;;;;;29.85;28.05;;;;;;;19.19;100.00;99353.78;5313827;26;20001;-78
2024/04/17 06:23:15;;;;;;;30.27;28.38;;;;;;;19.03;100.00;99362.41;5344225;26;20330;-78
2024/04/17 06:25:45;;;;;;;30.35;28.45;;;;;;;18.90;100.00;99363.97;5348250;26;19997;-78
2024/04/17 06:28:13;;;;;;;28.77;27.00;;;;;;;18.98;100.00;99352.53;5345929;26;20013;-78
2024/04/17 06:30:48;;;;;;;29.00;27.40;;;;;;;19.06;100.00;99348.34;5348704;26;20004;-78
2024/04/17 06:33:15;;;;;;;27.08;25.27;;;;;;;19.24;100.00;99342.13;5318460;26;20002;-78
2024/04/17 06:35:46;;;;;;;26.90;24.58;;;;;;;19.17;100.00;99334.44;5312380;26;20450;-78
2024/04/17 06:38:15;;;;;;;26.15;24.27;;;;;;;19.16;100.00;99330.16;5331918;26;20469;-78
2024/04/17 06:40:44;;;;;;;29.45;27.23;;;;;;;19.01;100.00;99337.69;5347908;26;20539;-78
2024/04/17 06:43:10;;;;;;;29.85;27.20;;;;;;;19.26;100.00;99333.75;5346543;26;20063;-78
2024/04/17 06:45:39;;;;;;;26.98;25.27;;;;;;;19.25;100.00;99326.78;5348158;26;20005;-78
2024/04/17 06:48:07;;;;;;;26.52;24.92;;;;;;;19.10;100.00;99336.72;5331697;26;19998;-78
2024/04/17 06:50:38;;;;;;;27.10;25.40;;;;;;;18.89;100.00;99320.13;5313180;26;19997;-79
2024/04/17 06:53:04;;;;;;;28.40;26.42;;;;;;;19.57;100.00;99312.44;5320326;26;20001;-78
2024/04/17 06:55:36;;;;;;;25.52;23.92;;;;;;;19.55;100.00;99306.56;5348070;26;20015;-78
2024/04/17 06:58:02;;;;;;;26.27;24.57;;;;;;;19.47;100.00;99316.13;5340787;26;20117;-78
2024/04/17 07:00:34;;;;;;;27.98;26.23;;;;;;;19.76;100.00;99312.34;5313775;26;20442;-78
2024/04/17 07:03:02;;;;;;;28.25;26.40;;;;;;;19.98;100.00;99307.06;5313016;26;20008;-78
2024/04/17 07:05:31;;;;;;;28.70;26.58;;;;;;;19.81;100.00;99304.19;5347839;26;20005;-82
2024/04/17 07:07:57;;;;;;;29.38;27.67;;;;;;;20.17;100.00;99317.69;5327508;26;20464;-83
2024/04/17 07:10:28;;;;;;;30.88;29.17;;;;;;;20.36;100.00;99312.13;5315446;26;20006;-82
2024/04/17 07:12:57;;;;;;;29.88;28.00;;;;;;;20.43;100.00;99328.72;5312266;26;20001;-82
2024/04/17 07:15:32;;;;;;;31.90;30.00;;;;;;;20.70;100.00;99332.44;5343688;26;20013;-83
2024/04/17 07:17:58;;;;;;;27.60;25.90;;;;;;;20.83;100.00;99336.19;5346510;26;20037;-83
2024/04/17 07:20:27;;;;;;;26.60;24.90;;;;;;;21.00;100.00;99342.47;5323228;26;20453;-82
2024/04/17 07:22:53;;;;;;;27.65;26.05;;;;;;;20.98;100.00;99349.28;5311889;26;20015;-83
2024/04/17 07:25:26;;;;;;;30.60;28.38;;;;;;;21.13;100.00;99348.91;5314751;26;20041;-82
2024/04/17 07:27:52;;;;;;;31.38;29.17;;;;;;;20.92;100.00;99340.50;5311650;26;20001;-82
2024/04/17 07:30:32;;;;;;;30.48;28.00;;;;;;;21.06;100.00;99348.56;5334819;26;20005;-78
2024/04/17 07:32:58;;;;;;;28.35;26.75;;;;;;;21.15;100.00;99335.09;5345418;26;20016;-79
2024/04/17 07:35:27;;;;;;;28.88;27.17;;;;;;;20.50;100.00;99347.94;5347705;26;20001;-78
2024/04/17 07:37:54;;;;;;;28.55;26.85;;;;;;;20.47;100.00;99342.38;5339439;26;20522;-80
2024/04/17 07:40:24;;;;;;;27.10;25.40;;;;;;;20.53;100.00;99333.88;5349020;26;20001;-82
2024/04/17 07:42:50;;;;;;;28.80;25.30;;;;;;;20.88;100.00;99339.53;5346115;26;20100;-78
2024/04/17 07:45:21;;;;;;;25.25;23.70;;;;;;;20.50;100.00;99345.25;5347646;26;20364;-78
2024/04/17 07:47:50;;;;;;;25.52;23.92;;;;;;;20.70;100.00;99343.22;5345217;26;20449;-79
2024/04/17 07:50:27;;;;;;;26.15;24.65;;;;;;;21.09;100.00;99339.84;5333547;26;20010;-82
2024/04/17 07:52:53;;;;;;;30.95;28.80;;;;;;;21.00;100.00;99322.78;5328756;26;20756;-82
2024/04/17 07:55:23;;;;;;;30.10;28.30;;;;;;;21.05;100.00;99311.84;5348646;26;20028;-82
2024/04/17 07:57:49;;;;;;;30.70;28.90;;;;;;;21.38;100.00;99312.34;5345783;26;20005;-82
2024/04/17 08:00:18;;;;;;;28.98;27.27;;;;;;;21.11;100.00;99326.03;5346096;26;20009;-82
2024/04/17 08:02:50;;;;;;;28.70;27.00;;;;;;;21.67;100.00;99325.34;5311228;26;20013;-82
2024/04/17 08:05:18;;;;;;;26.90;25.00;;;;;;;21.00;100.00;99320.88;5317391;26;20017;-83
2024/04/17 08:07:45;;;;;;;26.85;25.05;;;;;;;20.83;100.00;99319.97;5346453;26;20110;-83
2024/04/17 08:10:26;;;;;;;27.17;25.38;;;;;;;20.52;100.00;99336.91;5348837;26;20005;-82
2024/04/17 08:13:04;;;;;;;28.20;26.35;;;;;;;19.95;100.00;99340.00;5346040;26;20441;-82
2024/04/17 08:15:33;;;;;;;27.45;25.65;;;;;;;20.54;100.00;99343.56;5341403;26;20021;-82
2024/04/17 08:18:04;;;;;;;28.13;26.23;;;;;;;19.84;100.00;99336.69;5317247;26;20001;-82
2024/04/17 08:20:31;;;;;;;29.50;27.63;;;;;;;20.21;100.00;99337.56;5310482;26;20042;-78
2024/04/17 08:23:01;;;;;;;28.33;26.50;;;;;;;20.85;100.00;99321.28;5341194;26;20448;-78
2024/04/17 08:25:47;;;;;;;27.33;25.52;;;;;;;21.44;100.00;99326.53;5333726;26;20086;-79
2024/04/17 08:28:15;;;;;;;27.35;25.55;;;;;;;21.18;100.00;99326.38;5305861;26;20030;-78
2024/04/17 08:30:44;;;;;;;27.92;25.98;;;;;;;21.41;100.00;99309.03;5310363;26;20006;-83
2024/04/17 08:33:25;;;;;;;26.95;24.95;;;;;;;20.91;100.00;99305.72;5337447;26;20012;-82
2024/04/17 08:35:51;;;;;;;26.25;24.35;;;;;;;21.22;100.00;99295.75;5317599;26;20001;-82
2024/04/17 08:38:20;;;;;;;27.70;25.80;;;;;;;21.73;100.00;99296.28;5318006;26;20352;-81
2024/04/17 08:40:46;;;;;;;30.15;27.23;;;;;;;22.47;100.00;99289.22;5345621;26;20013;-82
2024/04/17 08:43:26;;;;;;;30.58;28.38;;;;;;;22.41;100.00;99289.38;5348667;26;20013;-83
2024/04/17 08:45:53;;;;;;;30.00;27.90;;;;;;;22.55;100.00;99288.41;5345994;26;20004;-83
2024/04/17 08:48:26;;;;;;;27.98;25.98;;;;;;;22.56;100.00;99290.78;5348407;26;20329;-82
2024/04/17 08:51:10;;;;;;;27.17;25.27;;;;;;;21.82;100.00;99285.50;5346178;26;20001;-82
2024/04/17 08:53:45;;;;;;;27.98;25.98;;;;;;;22.11;100.00;99293.00;5327720;26;20002;-82
2024/04/17 08:56:13;;;;;;;27.70;25.80;;;;;;;22.34;100.00;99285.56;5311918;26;20006;-82
2024/04/17 08:58:45;;;;;;;26.67;24.77;;;;;;;22.30;100.00;99293.53;5316955;26;20017;-82
2024/04/17 09:01:18;;;;;;;28.92;27.10;;;;;;;21.90;100.00;99290.09;5314598;26;20078;-82
2024/04/17 09:03:53;;;;;;;32.58;30.15;;;;;;;22.15;100.00;99294.75;5343310;26;20448;-82
2024/04/17 09:06:19;;;;;;;30.70;28.60;;;;;;;21.89;100.00;99285.81;5348493;26;20005;-82
2024/04/17 09:08:48;;;;;;;27.95;26.15;;;;;;;21.74;100.00;99295.16;5351105;26;20015;-81
2024/04/17 09:11:15;;;;;;;28.65;26.75;;;;;;;21.71;100.00;99279.56;5348212;26;20015;-82
2024/04/17 09:13:46;;;;;;;29.50;27.60;;;;;;;21.45;100.00;99277.63;5351184;26;20005;-83
2024/04/17 09:16:28;;;;;;;26.27;24.67;;;;;;;21.46;100.00;99270.31;5348840;26;20001;-82
2024/04/17 09:18:59;;;;;;;27.63;25.92;;;;;;;21.79;100.00;99265.31;5351169;26;20019;-82
2024/04/17 09:21:25;;;;;;;27.00;25.07;;;;;;;21.71;100.00;99252.56;5349114;26;20016;-82
2024/04/17 09:23:54;;;;;;;28.60;26.80;;;;;;;22.08;100.00;99253.88;5347032;26;20001;-83
2024/04/17 09:26:20;;;;;;;28.80;27.00;;;;;;;21.98;100.00;99254.19;5312984;26;20074;-81
2024/04/17 09:28:49;;;;;;;29.17;27.38;;;;;;;21.19;100.00;99253.19;5322189;26;20083;-80
2024/04/17 09:31:17;;;;;;;30.33;28.42;;;;;;;21.18;100.00;99262.38;5343451;26;20015;-81
2024/04/17 09:33:47;;;;;;;27.23;25.33;;;;;;;21.76;100.00;99262.44;5338107;26;20004;-81
2024/04/17 09:36:17;;;;;;;26.90;25.00;;;;;;;21.68;100.00;99282.91;5345936;26;20001;-80
2024/04/17 09:38:45;;;;;;;26.60;24.80;;;;;;;21.89;100.00;99296.63;5344850;26;20065;-81
2024/04/17 09:41:15;;;;;;;29.42;27.63;;;;;;;21.20;100.00;99297.16;5347611;26;20780;-81
2024/04/17 09:43:45;;;;;;;27.38;25.67;;;;;;;21.68;100.00;99283.69;5349738;26;20480;-80
2024/04/17 09:46:14;;;;;;;31.13;29.23;;;;;;;21.71;100.00;99280.38;5344694;26;20005;-81
2024/04/17 09:48:46;;;;;;;29.20;27.45;;;;;;;19.84;100.00;99282.03;5327990;26;20082;-82
2024/04/17 09:51:21;;;;;;;33.97;31.65;;;;;;;21.31;100.00;99284.19;5347038;26;20001;-81
2024/04/17 09:53:56;;;;;;;26.80;25.10;;;;;;;20.82;100.00;99294.91;5349874;26;20442;-81
2024/04/17 09:56:25;;;;;;;33.90;31.80;;;;;;;20.50;100.00;99298.63;5347364;26;20429;-81
2024/04/17 09:58:58;;;;;;;28.90;27.00;;;;;;;20.82;100.00;99292.22;5349874;26;20001;-81
2024/04/17 10:01:25;;;;;;;30.10;28.30;;;;;;;20.92;100.00;99281.16;5332923;26;20083;-80
2024/04/17 10:03:56;;;;;;;36.17;33.97;;;;;;;21.44;100.00;99294.91;5347328;26;20152;-80
2024/04/17 10:06:25;;;;;;;35.17;33.10;;;;;;;22.07;100.00;99308.25;5342688;26;20009;-83
2024/04/17 10:08:55;;;;;;;33.08;30.95;;;;;;;20.71;100.00;99310.53;5348702;26;20016;-82
2024/04/17 10:11:26;;;;;;;29.95;28.10;;;;;;;21.58;100.00;99304.81;5339961;26;20096;-83
2024/04/17 10:13:57;;;;;;;31.08;29.17;;;;;;;22.28;100.00;99295.75;5315596;26;20038;-83
2024/04/17 10:16:32;;;;;;;35.20;32.78;;;;;;;22.09;100.00;99311.44;5320671;26;20352;-83
2024/04/17 10:19:00;;;;;;;34.28;32.28;;;;;;;22.20;100.00;99309.25;5349882;26;20005;-83
2024/04/17 10:21:34;;;;;;;35.38;32.83;;;;;;;22.23;100.00;99301.28;5348139;26;20042;-83
2024/04/17 10:24:03;;;;;;;34.92;32.72;;;;;;;22.06;100.00;99302.06;5350225;26;20452;-83
2024/04/17 10:26:43;;;;;;;32.92;30.83;;;;;;;22.12;100.00;99289.19;5341403;26;20116;-83
2024/04/17 10:29:20;;;;;;;34.10;31.75;;;;;;;21.34;100.00;99289.75;5314797;26;20005;-83
2024/04/17 10:32:00;;;;;;;31.83;30.02;;;;;;;21.20;100.00;99291.75;5312174;26;20005;-82
2024/04/17 10:34:45;;;;;;;32.33;30.13;;;;;;;21.01;100.00;99292.00;5314457;26;20076;-83
2024/04/17 10:37:26;;;;;;;32.63;30.35;;;;;;;21.25;100.00;99275.44;5309725;26;20002;-83
2024/04/17 10:39:59;;;;;;;31.13;29.25;;;;;;;20.98;100.00;99279.13;5313345;26;20013;-83
2024/04/17 10:42:29;;;;;;;27.95;26.25;;;;;;;20.64;100.00;99266.22;5322080;26;20778;-83
2024/04/17 10:45:09;;;;;;;26.58;24.98;;;;;;;20.26;100.00;99278.13;5347161;26;20000;-83
2024/04/17 10:47:37;;;;;;;26.30;24.80;;;;;;;19.79;100.00;99274.03;5349763;26;19997;-82
2024/04/17 10:50:05;;;;;;;26.85;25.15;;;;;;;19.74;100.00;99271.47;5347098;26;20449;-83
2024/04/17 10:52:46;;;;;;;25.80;24.10;;;;;;;20.41;100.00;99260.78;5349729;26;20012;-83
2024/04/17 10:55:14;;;;;;;24.50;23.00;;;;;;;19.64;100.00;99267.06;5346734;26;20009;-78
2024/04/17 10:57:42;;;;;;;25.65;23.88;;;;;;;20.52;100.00;99248.69;5348320;26;20005;-78
2024/04/17 11:00:09;;;;;;;25.58;24.08;;;;;;;19.06;100.00;99248.81;5346056;26;20001;-78
2024/04/17 11:02:39;;;;;;;26.98;25.38;;;;;;;19.03;100.00;99252.88;5348050;26;20001;-78
2024/04/17 11:05:06;;;;;;;26.48;24.98;;;;;;;19.52;100.00;99254.13;5345108;26;20074;-78
2024/04/17 11:07:37;;;;;;;25.67;24.17;;;;;;;19.18;100.00;99255.31;5338726;26;20442;-78
2024/04/17 11:10:10;;;;;;;26.70;25.10;;;;;;;19.97;100.00;99259.66;5311142;26;20075;-78
2024/04/17 11:12:39;;;;;;;25.40;23.90;;;;;;;19.64;100.00;99265.19;5314749;26;20515;-83
2024/04/17 11:15:10;;;;;;;28.08;26.38;;;;;;;18.42;100.00;99265.44;5312691;26;20012;-82
2024/04/17 11:17:36;;;;;;;28.25;26.67;;;;;;;18.41;100.00;99255.00;5313018;26;20105;-82
2024/04/17 11:20:08;;;;;;;30.08;27.60;;;;;;;18.20;100.00;99239.19;5313263;26;20025;-78
2024/04/17 11:22:35;;;;;;;28.52;26.70;;;;;;;18.72;100.00;99228.41;5310795;26;20002;-78
2024/04/17 11:25:15;;;;;;;31.08;27.83;;;;;;;19.25;100.00;99219.91;5317704;26;20079;-79